Have a Safe July 4th! 

Flight Track Log - Related Links

Times and Time Zones

All times are in EDT time to prevent confusion due to time zone crossing. See the CSH9415 flight status page for this flight to view local times or setup timezone preferences in your user account.

Time Position Orientation Groundspeed Altitude Reporting Facility
EDT Latitude Longitude Course Direction KTS MPH feet Rate Location/Type
Thu 09:28:00 PM 31.7206 120.9690 329° Northwest  Level Estimated
Thu 09:29:00 PM 31.7753 120.9302 329° Northwest  Level Estimated
Thu 09:30:00 PM 31.8301 120.8914 329° Northwest  Level Estimated
Thu 09:31:00 PM 31.8848 120.8526 329° Northwest  Level Estimated
Thu 09:32:00 PM 31.9395 120.8137 329° Northwest  Level Estimated
Thu 09:33:00 PM 31.9942 120.7747 329° Northwest  Level Estimated
Thu 09:34:00 PM 32.0489 120.7357 329° Northwest  Level Estimated
Thu 09:35:00 PM 32.1035 120.6967 329° Northwest  Level Estimated
Thu 09:36:00 PM 32.1582 120.6577 329° Northwest  Level Estimated
Thu 09:37:00 PM 32.2128 120.6185 329° Northwest  Level Estimated
Thu 09:38:00 PM 32.2674 120.5794 329° Northwest  Level Estimated
Thu 09:39:00 PM 32.3221 120.5401 329° Northwest  Level Estimated
Thu 09:40:00 PM 32.3767 120.5009 329° Northwest  Level Estimated
Thu 09:41:00 PM 32.4313 120.4616 329° Northwest  Level Estimated
Thu 09:42:00 PM 32.4859 120.4222 329° Northwest  Level Estimated
Thu 09:43:00 PM 32.5404 120.3828 329° Northwest  Level Estimated
Thu 09:44:00 PM 32.5950 120.3433 329° Northwest  Level Estimated
Thu 09:45:00 PM 32.6495 120.3038 329° Northwest  Level Estimated
Thu 09:46:00 PM 32.7041 120.2643 329° Northwest  Level Estimated
Thu 09:47:00 PM 32.7586 120.2247 329° Northwest  Level Estimated
Thu 09:48:00 PM 32.8131 120.1850 329° Northwest  Level Estimated
Thu 09:49:00 PM 32.8676 120.1453 329° Northwest  Level Estimated
Thu 09:50:00 PM 32.9221 120.1056 329° Northwest  Level Estimated
Thu 09:51:00 PM 32.9766 120.0658 329° Northwest  Level Estimated
Thu 09:52:00 PM 33.0310 120.0259 328° Northwest  Level Estimated
Thu 09:53:00 PM 33.0855 119.9861 328° Northwest  Level Estimated
Thu 09:54:00 PM 33.1399 119.9461 328° Northwest  Level Estimated
Thu 09:55:00 PM 33.1943 119.9061 328° Northwest  Level Estimated
Thu 09:56:00 PM 33.2487 119.8661 328° Northwest  Level Estimated
Thu 09:57:00 PM 33.3031 119.8260 328° Northwest  Level Estimated
Thu 09:58:00 PM 33.3575 119.7858 328° Northwest  Level Estimated
Thu 09:59:00 PM 33.4119 119.7456 328° Northwest  Level Estimated
Thu 10:00:00 PM 33.4662 119.7054 328° Northwest  Level Estimated
Thu 10:01:00 PM 33.5206 119.6651 328° Northwest  Level Estimated
Thu 10:02:00 PM 33.5749 119.6248 328° Northwest  Level Estimated
Thu 10:03:00 PM 33.6292 119.5844 328° Northwest  Level Estimated
Thu 10:04:00 PM 33.6835 119.5439 328° Northwest  Level Estimated
Thu 10:05:00 PM 33.7378 119.5034 328° Northwest  Level Estimated
Thu 10:06:00 PM 33.7921 119.4629 328° Northwest  Level Estimated
Thu 10:07:00 PM 33.8464 119.4223 328° Northwest  Level Estimated
Thu 10:08:00 PM 33.9006 119.3816 328° Northwest  Level Estimated
Thu 10:09:00 PM 33.9549 119.3409 328° Northwest  Level Estimated
Thu 10:10:00 PM 34.0091 119.3002 328° Northwest  Level Estimated
Thu 10:11:00 PM 34.0633 119.2594 328° Northwest  Level Estimated
Thu 10:12:00 PM 34.1175 119.2185 328° Northwest  Level Estimated
Thu 10:13:00 PM 34.1717 119.1776 328° Northwest  Level Estimated
Thu 10:14:00 PM 34.2258 119.1366 328° Northwest  Level Estimated
Thu 10:15:00 PM 34.2800 119.0956 328° Northwest  Level Estimated
Thu 10:16:00 PM 34.3341 119.0545 328° Northwest  Level Estimated
Thu 10:17:00 PM 34.3883 119.0134 328° Northwest  Level Estimated
Thu 10:18:00 PM 34.4424 118.9722 328° Northwest  Level Estimated
Thu 10:19:00 PM 34.4965 118.9310 328° Northwest  Level Estimated
Thu 10:20:00 PM 34.5506 118.8897 328° Northwest  Level Estimated

Login

Don't have an account? Register now (free) for customized features, flight alerts, and more!